Hauptseite
METAR-TAF:

METAR-TAF

Flughäfen :

Flughafen Santorin

Santorin, Griechenland

Breite: 36-24N, Länge: 025-29E, Höhe: 38 m

Beobachtung

Neuester Wetterbericht von vor 7 Stunden und 58 Minuten, um 19:50 UTC
Wind 19 kt aus Nord
Temperatur 13°C
Luftfeuchtigkeit 58%
Luftdruck 1025 hPa
Sichtweite 10 km oder mehr
Durchbrochene Bewölkung in der Höhe von 3500 ft

METAR: LGSR 051950Z 36019KT 9999 BKN035 13/05 Q1025 RMK FEW080 BLU

Zeit: 05:48 (03:48 UTC)

Prognose

Neuester Wetterbericht von vor 4 Stunden und 48 Minuten, um 23:00 UTC
Gültige Prognose vom 06 um 00 UTC bis 06 um 24 UTC
Wind 20 kt aus Nord/Nordost
Sichtweite 10 km oder mehr
Aufgelockert bewölkt in der Höhe von 2000 ft

TAF: LGSR 052300Z 0600/0624 02020KT 9999 SCT020

Wetterbeobachtungen und Prognosen von mehr als 4000 Flughäfen (METAR und TAF Bericht).

Die verfügbaren Stationen werden durch gelbe und rote Markierungen auf der Karte dargestellt.

Führen Sie die Maus auf sie, um den Namen der Station zu sehen.

Darauf klicken, um die Beobachtung von Wetterbeobachtungen und Prognosen zu sehen.

Um die Karte zu ändern : klicken Sie auf den grünen Tasten mit einem schwarzen Kreuz Zum Vergrößern, auf den grünen Button mit einem Gedankenstrich zu verkleinern, oder auf die grünen Pfeile für benachbarte Karten.


METAR-TAF: